x

Smith Island, Wa (sisw1) Weather Station

6:00am - Wed 29th Jun 2016 All times are PDT. -7 hours from GMT.

  • Wind
    17mph
  • 空気 Temp 53°f
  • Sea Pressure 1022.3mb
  • Smith Island, Wa
  • Smith Island, Wa

More Historic Weather Station data

Upgrade to MSW Pro to gain access to the past 30 days of data for over 8000 Wavebouys and Weather Stations around the globe.

Join Pro

Comparision Forecast

View Surf forecast
   
Wed 06/29 6:00am 17
mph
1022.3mb 53f
5:00am 18 22 mph 1021.7mb 53f
4:00am 21 22 mph 1021.3mb 53f
3:00am 22 25 mph 1021.1mb 53f
2:00am 24 28 mph 1020.8mb 53f
1:00am 28 31 mph 1020.5mb 53f
12:00am 31 33 mph 1020.2mb 53f
Tue 06/28 11:00pm 28 30 mph 1020.1mb 53f
10:00pm 28 30 mph 1020.1mb 53f
9:00pm 26 31 mph 1019.8mb 54f
8:00pm 22 23 mph 1019.8mb 56f
7:00pm 17 20 mph 1020mb 58f
6:00pm 16 18 mph 1020.2mb 58f
5:00pm 5 8 mph 1021mb 59f
4:00pm 6 7 mph 1021.7mb 60f
3:00pm 3 5 mph 1021.9mb 59f
2:00pm 5
mph
1022.4mb 59f
1:00pm 6 7 mph 1022.9mb 58f
12:00pm 6 7 mph 1023.2mb 55f
11:00am 10 11 mph 1023.4mb 54f
10:00am 13 15 mph 1023.4mb 54f
9:00am 16 18 mph 1023.5mb 54f
8:00am 16 17 mph 1023.2mb 53f
7:00am 18 21 mph 1022.9mb 53f
6:00am 22 24 mph 1022.3mb 53f
5:00am 23 26 mph 1021.8mb 52f
4:00am 22 23 mph 1021.9mb 52f
3:00am 21 22 mph 1021.9mb 53f
2:00am 5 9 mph 1021.6mb 53f
1:00am 23 31 mph 1020.4mb 53f
12:00am 26 33 mph 1020.4mb 53f
Mon 06/27 11:00pm 29 33 mph 1020.2mb 53f
10:00pm 31 33 mph 1019.9mb 53f
9:00pm 31 33 mph 1019.4mb 54f
8:00pm 26 30 mph 1019.6mb 55f
7:00pm 17 21 mph 1019.8mb 56f
6:00pm 7 11 mph 1020.2mb 58f
5:00pm 14 16 mph 1020.6mb 57f
4:00pm 10 14 mph 1020.9mb 59f
3:00pm 13 14 mph 1021mb 58f
2:00pm 9 11 mph 1021.2mb 58f
1:00pm 9 11 mph 1021.4mb 58f
12:00pm 6 8 mph 1021.4mb 56f
11:00am 7 9 mph 1021.5mb 56f
10:00am 6 7 mph 1021.6mb 56f
9:00am 6 7 mph 1021.4mb 56f
8:00am 6
mph
1021.2mb 55f
7:00am 5 6 mph 1021mb 54f
6:00am 6 7 mph 1020.6mb 53f
5:00am 5 6 mph 1020.1mb 53f
4:00am 9
mph
1020.1mb 54f
3:00am 7 8 mph 1020.1mb 54f
2:00am 8
mph
1020mb 55f
1:00am 7 8 mph 1020.1mb 55f
12:00am 13 17 mph 1020mb 54f
Sun 06/26 11:00pm 15 17 mph 1019.9mb 54f
10:00pm 18 21 mph 1020.1mb 55f
9:00pm 16 17 mph 1020.2mb 55f
8:00pm 17 18 mph 1020.1mb 56f
7:00pm 14
mph
1020.3mb 60f
6:00pm 13
mph
1020.4mb 62f
5:00pm 10 11 mph 1021mb 63f
4:00pm 8
mph
1021.7mb 64f
3:00pm 11
mph
1022.2mb 60f
2:00pm 7 8 mph 1022.7mb 61f
1:00pm 6 8 mph 1023.4mb 60f
12:00pm 6 7 mph 1023.7mb 60f
11:00am 8 10 mph 1023.8mb 57f
10:00am 6 7 mph 1024.2mb 56f
9:00am 3 5 mph 1024.3mb 54f
8:00am 6 7 mph 1024mb 53f
7:00am 5 6 mph 1023.9mb 52f
6:00am 5 6 mph 1023.9mb 51f
5:00am 6 7 mph 1023.7mb 51f
4:00am 9 11 mph 1023.8mb 52f
3:00am 11 13 mph 1023.8mb 52f
2:00am 7 9 mph 1023.9mb 53f
1:00am 8 10 mph 1024mb 53f
12:00am 7 9 mph 1023.9mb 53f
Sat 06/25 11:00pm 16 18 mph 1023.7mb 53f
10:00pm 18 20 mph 1023.7mb 53f
9:00pm 17 18 mph 1023.5mb 54f
8:00pm 16 20 mph 1023.6mb 55f
7:00pm 15 16 mph 1023.8mb 55f
6:00pm 14
mph
1024.3mb 56f
5:00pm 10 11 mph 1024.7mb 57f
4:00pm 7
mph
1025.3mb 59f
3:00pm 6 7 mph 1025.6mb 59f